Buena Park, California
Current Conditions -  °F | °C
As of 10:53 AM on Thursday 18 Dec 2014 (Local Time) from KFUL Reporting Station
Overcast Overcast  
Wind Chill: 62°   Ceiling: 8000
Heat Index: 62°   Visibility: 10mi
Dew Point: 46°   Wind: 3mph
Humidity: 56%   Direction: NA
Pressure: 30.18"   Gusts: NA
Location:  33.86°N, 117.99°W
Report Text: KFUL 181853Z VRB03KT 10SM FEW046 OVC080 17/08 A3018 RMK AO2 SLP220 T01670078
Loading
Personal Weather Stations






























Interactive Weather Map New forecast layout! Learn more

10-Day Weather Forecast

Advertisements
Track Severe Weather on mobile